Time,TemperatureF,DewpointF,PressureIn,WindDirection,WindDirectionDegrees,WindSpeedMPH,WindSpeedGustMPH,Humidity,HourlyPrecipIn,Conditions,Clouds,dailyrainin,SolarRadiationWatts/m^2,SoftwareType,DateUTC
2013-06-04 00:03:00,56.8,47.5,30.08,SSE,162,1.0,2.0,71,0.00,,,0.00,0,Wunderground v.1.15,2013-06-04 05:03:00,
2013-06-04 00:08:00,57.0,47.3,30.08,SSE,162,2.0,2.0,70,0.00,,,0.00,0,Wunderground v.1.15,2013-06-04 05:08:00,
2013-06-04 00:22:00,56.6,48.0,30.09,SSE,162,0.0,1.0,73,0.00,,,0.00,0,Wunderground v.1.15,2013-06-04 05:22:00,
2013-06-04 00:28:00,56.8,48.6,30.08,SSE,162,5.0,5.0,74,0.00,,,0.00,0,Wunderground v.1.15,2013-06-04 05:28:00,
2013-06-04 00:33:00,57.1,48.5,30.08,SSE,161,4.0,4.0,73,0.00,,,0.00,0,Wunderground v.1.15,2013-06-04 05:33:00,
2013-06-04 00:38:00,57.7,48.7,30.08,SSE,156,4.0,6.0,72,0.00,,,0.00,0,Wunderground v.1.15,2013-06-04 05:38:00,
2013-06-04 00:44:00,58.0,49.4,30.08,SSE,150,4.0,5.0,73,0.00,,,0.00,0,Wunderground v.1.15,2013-06-04 05:44:00,
2013-06-04 00:49:00,58.2,49.6,30.08,SSE,150,5.0,5.0,73,0.00,,,0.00,0,Wunderground v.1.15,2013-06-04 05:49:00,
2013-06-04 00:55:00,58.7,50.1,30.08,SSE,165,6.0,8.0,73,0.00,,,0.00,0,Wunderground v.1.15,2013-06-04 05:55:00,
2013-06-04 01:01:00,58.8,50.2,30.08,SSE,164,4.0,5.0,73,0.00,,,0.00,0,Wunderground v.1.15,2013-06-04 06:01:00,
2013-06-04 01:07:00,58.8,50.2,30.07,SSE,167,3.0,6.0,73,0.00,,,0.00,0,Wunderground v.1.15,2013-06-04 06:07:00,
2013-06-04 01:13:00,58.8,50.2,30.08,SSE,161,5.0,6.0,73,0.00,,,0.00,0,Wunderground v.1.15,2013-06-04 06:13:00,
2013-06-04 01:18:00,58.8,50.2,30.08,SSE,167,0.0,7.0,73,0.00,,,0.00,0,Wunderground v.1.15,2013-06-04 06:18:00,
2013-06-04 01:24:00,58.8,49.4,30.08,SSE,152,5.0,5.0,71,0.00,,,0.00,0,Wunderground v.1.15,2013-06-04 06:24:00,
2013-06-04 01:29:00,58.8,50.2,30.08,South,172,0.0,5.0,73,0.00,,,0.00,0,Wunderground v.1.15,2013-06-04 06:29:00,
2013-06-04 01:35:00,58.7,50.1,30.08,South,181,1.0,3.0,73,0.00,,,0.00,0,Wunderground v.1.15,2013-06-04 06:35:00,
2013-06-04 01:40:00,58.6,50.0,30.08,South,170,4.0,4.0,73,0.00,,,0.00,0,Wunderground v.1.15,2013-06-04 06:40:00,
2013-06-04 01:45:00,58.6,50.3,30.08,South,169,0.0,3.0,74,0.00,,,0.00,0,Wunderground v.1.15,2013-06-04 06:45:00,
2013-06-04 01:51:00,58.4,50.1,30.08,South,169,0.0,1.0,74,0.00,,,0.00,0,Wunderground v.1.15,2013-06-04 06:51:00,
2013-06-04 01:56:00,58.3,50.4,30.08,South,169,0.0,1.0,75,0.00,,,0.00,0,Wunderground v.1.15,2013-06-04 06:56:00,
2013-06-04 02:01:00,58.3,50.8,30.08,South,169,0.0,0.0,76,0.00,,,0.00,0,Wunderground v.1.15,2013-06-04 07:01:00,
2013-06-04 02:06:00,58.2,51.0,30.08,South,169,2.0,2.0,77,0.00,,,0.00,0,Wunderground v.1.15,2013-06-04 07:06:00,
2013-06-04 02:11:00,58.1,50.2,30.07,SSE,167,0.0,2.0,75,0.00,,,0.00,0,Wunderground v.1.15,2013-06-04 07:11:00,
2013-06-04 02:16:00,58.2,50.3,30.07,SSE,167,0.0,3.0,75,0.00,,,0.00,0,Wunderground v.1.15,2013-06-04 07:16:00,
2013-06-04 02:21:00,58.2,50.3,30.06,SSE,167,0.0,2.0,75,0.00,,,0.00,0,Wunderground v.1.15,2013-06-04 07:21:00,
2013-06-04 02:26:00,58.3,50.0,30.07,SSE,167,0.0,3.0,74,0.00,,,0.00,0,Wunderground v.1.15,2013-06-04 07:26:00,
2013-06-04 02:31:00,58.3,50.0,30.06,SSE,167,0.0,1.0,74,0.00,,,0.00,0,Wunderground v.1.15,2013-06-04 07:31:00,
2013-06-04 02:37:00,58.4,50.1,30.06,SSE,167,0.0,1.0,74,0.00,,,0.00,0,Wunderground v.1.15,2013-06-04 07:37:00,
2013-06-04 02:42:00,58.5,49.9,30.06,SSE,167,0.0,1.0,73,0.00,,,0.00,0,Wunderground v.1.15,2013-06-04 07:42:00,
2013-06-04 02:47:00,58.5,49.9,30.07,SSE,167,0.0,3.0,73,0.00,,,0.00,0,Wunderground v.1.15,2013-06-04 07:47:00,
2013-06-04 02:52:00,58.6,50.0,30.06,SSE,167,0.0,1.0,73,0.00,,,0.00,0,Wunderground v.1.15,2013-06-04 07:52:00,
2013-06-04 02:57:00,58.7,50.1,30.07,SSE,167,0.0,3.0,73,0.00,,,0.00,0,Wunderground v.1.15,2013-06-04 07:57:00,
2013-06-04 03:02:00,58.7,50.1,30.07,South,169,0.0,2.0,73,0.00,,,0.00,0,Wunderground v.1.15,2013-06-04 08:02:00,
2013-06-04 03:07:00,58.8,50.2,30.08,South,169,0.0,2.0,73,0.00,,,0.00,0,Wunderground v.1.15,2013-06-04 08:07:00,
2013-06-04 03:12:00,58.7,50.1,30.08,South,169,0.0,1.0,73,0.00,,,0.00,0,Wunderground v.1.15,2013-06-04 08:12:00,
2013-06-04 03:17:00,58.7,50.1,30.08,South,169,0.0,2.0,73,0.00,,,0.00,0,Wunderground v.1.15,2013-06-04 08:17:00,
2013-06-04 03:22:00,58.7,50.1,30.08,South,169,0.0,0.0,73,0.00,,,0.00,0,Wunderground v.1.15,2013-06-04 08:22:00,
2013-06-04 03:27:00,58.6,50.0,30.08,South,169,0.0,0.0,73,0.00,,,0.00,0,Wunderground v.1.15,2013-06-04 08:27:00,
2013-06-04 03:32:00,58.5,49.9,30.08,South,169,0.0,2.0,73,0.00,,,0.00,0,Wunderground v.1.15,2013-06-04 08:32:00,
2013-06-04 03:37:00,58.4,49.4,30.08,WSW,242,0.0,3.0,72,0.00,,,0.00,0,Wunderground v.1.15,2013-06-04 08:37:00,
2013-06-04 03:42:00,58.3,49.3,30.08,WSW,242,0.0,0.0,72,0.00,,,0.00,0,Wunderground v.1.15,2013-06-04 08:42:00,
2013-06-04 03:47:00,58.2,49.2,30.09,WSW,242,0.0,3.0,72,0.00,,,0.00,0,Wunderground v.1.15,2013-06-04 08:47:00,
2013-06-04 03:52:00,58.1,49.1,30.09,WSW,242,0.0,2.0,72,0.00,,,0.00,0,Wunderground v.1.15,2013-06-04 08:52:00,
2013-06-04 03:57:00,58.1,49.1,30.09,WSW,242,0.0,2.0,72,0.00,,,0.00,0,Wunderground v.1.15,2013-06-04 08:57:00,
2013-06-04 04:02:00,58.0,49.0,30.09,WSW,242,0.0,0.0,72,0.00,,,0.00,0,Wunderground v.1.15,2013-06-04 09:02:00,
2013-06-04 04:07:00,57.8,48.8,30.10,WSW,242,0.0,1.0,72,0.00,,,0.00,0,Wunderground v.1.15,2013-06-04 09:07:00,
2013-06-04 04:12:00,57.8,49.2,30.10,WSW,242,0.0,0.0,73,0.00,,,0.00,0,Wunderground v.1.15,2013-06-04 09:12:00,
2013-06-04 04:17:00,57.6,49.0,30.09,WSW,242,0.0,0.0,73,0.00,,,0.00,0,Wunderground v.1.15,2013-06-04 09:17:00,
2013-06-04 04:22:00,57.5,49.3,30.09,WSW,242,0.0,0.0,74,0.00,,,0.00,0,Wunderground v.1.15,2013-06-04 09:22:00,
2013-06-04 04:27:00,57.3,49.1,30.08,WSW,242,0.0,0.0,74,0.00,,,0.00,0,Wunderground v.1.15,2013-06-04 09:27:00,
2013-06-04 04:32:00,57.2,49.0,30.09,WSW,242,0.0,0.0,74,0.00,,,0.00,0,Wunderground v.1.15,2013-06-04 09:32:00,
2013-06-04 04:37:00,57.2,49.0,30.09,WSW,242,0.0,0.0,74,0.00,,,0.00,0,Wunderground v.1.15,2013-06-04 09:37:00,
2013-06-04 04:42:00,57.1,48.9,30.09,WSW,242,0.0,0.0,74,0.00,,,0.00,0,Wunderground v.1.15,2013-06-04 09:42:00,
2013-06-04 04:47:00,57.1,48.9,30.09,WSW,242,0.0,1.0,74,0.00,,,0.00,0,Wunderground v.1.15,2013-06-04 09:47:00,
2013-06-04 04:52:00,57.1,49.2,30.09,WSW,242,0.0,0.0,75,0.00,,,0.00,0,Wunderground v.1.15,2013-06-04 09:52:00,
2013-06-04 04:57:00,57.1,48.9,30.09,WSW,242,0.0,1.0,74,0.00,,,0.00,0,Wunderground v.1.15,2013-06-04 09:57:00,
2013-06-04 05:02:00,57.0,48.8,30.09,WSW,238,0.0,1.0,74,0.00,,,0.00,0,Wunderground v.1.15,2013-06-04 10:02:00,
2013-06-04 05:07:00,57.1,48.9,30.09,WSW,238,0.0,1.0,74,0.00,,,0.00,0,Wunderground v.1.15,2013-06-04 10:07:00,
2013-06-04 05:12:00,57.1,48.9,30.09,WSW,238,0.0,2.0,74,0.00,,,0.00,0,Wunderground v.1.15,2013-06-04 10:12:00,
2013-06-04 05:17:00,57.2,49.0,30.09,WSW,238,0.0,2.0,74,0.00,,,0.00,0,Wunderground v.1.15,2013-06-04 10:17:00,
2013-06-04 05:22:00,57.2,49.3,30.09,WSW,238,0.0,0.0,75,0.00,,,0.00,0,Wunderground v.1.15,2013-06-04 10:22:00,
2013-06-04 05:27:00,57.2,49.0,30.09,WSW,238,0.0,0.0,74,0.00,,,0.00,5,Wunderground v.1.15,2013-06-04 10:27:00,
2013-06-04 05:32:00,57.1,48.9,30.08,WSW,238,0.0,0.0,74,0.00,,,0.00,9,Wunderground v.1.15,2013-06-04 10:32:00,
2013-06-04 05:37:00,57.0,49.2,30.09,WSW,238,2.0,2.0,75,0.00,,,0.00,12,Wunderground v.1.15,2013-06-04 10:37:00,
2013-06-04 05:42:00,57.0,49.5,30.09,WSW,238,0.0,0.0,76,0.00,,,0.00,16,Wunderground v.1.15,2013-06-04 10:42:00,
2013-06-04 05:47:00,56.9,49.4,30.09,WSW,238,0.0,0.0,76,0.00,,,0.00,18,Wunderground v.1.15,2013-06-04 10:47:00,
2013-06-04 05:52:00,56.8,49.3,30.10,WSW,238,0.0,0.0,76,0.00,,,0.00,21,Wunderground v.1.15,2013-06-04 10:52:00,
2013-06-04 05:57:00,56.7,49.2,30.10,WSW,238,0.0,0.0,76,0.00,,,0.00,25,Wunderground v.1.15,2013-06-04 10:57:00,
2013-06-04 06:02:00,56.7,50.3,30.10,WSW,238,0.0,0.0,79,0.00,,,0.00,26,Wunderground v.1.15,2013-06-04 11:02:00,
2013-06-04 06:08:00,56.6,50.5,30.10,WSW,238,0.0,0.0,80,0.00,,,0.00,30,Wunderground v.1.15,2013-06-04 11:08:00,
2013-06-04 06:13:00,56.6,50.8,30.11,WSW,238,0.0,0.0,81,0.00,,,0.00,35,Wunderground v.1.15,2013-06-04 11:13:00,
2013-06-04 06:18:00,56.5,50.7,30.11,WSW,238,0.0,0.0,81,0.00,,,0.00,37,Wunderground v.1.15,2013-06-04 11:18:00,
2013-06-04 06:23:00,56.5,50.7,30.11,WSW,238,0.0,0.0,81,0.00,,,0.00,37,Wunderground v.1.15,2013-06-04 11:23:00,
2013-06-04 06:28:00,56.5,50.7,30.11,WSW,238,0.0,0.0,81,0.00,,,0.00,47,Wunderground v.1.15,2013-06-04 11:28:00,
2013-06-04 06:33:00,56.5,50.7,30.12,WSW,238,0.0,0.0,81,0.00,,,0.00,44,Wunderground v.1.15,2013-06-04 11:33:00,
2013-06-04 06:38:00,56.5,50.7,30.11,WSW,238,0.0,0.0,81,0.00,,,0.00,47,Wunderground v.1.15,2013-06-04 11:38:00,
2013-06-04 06:43:00,56.6,51.2,30.11,WSW,238,0.0,0.0,82,0.00,,,0.00,79,Wunderground v.1.15,2013-06-04 11:43:00,
2013-06-04 06:48:00,56.8,51.4,30.11,WSW,238,0.0,0.0,82,0.00,,,0.00,102,Wunderground v.1.15,2013-06-04 11:48:00,
2013-06-04 06:53:00,56.8,51.4,30.11,WSW,238,0.0,0.0,82,0.00,,,0.00,116,Wunderground v.1.15,2013-06-04 11:53:00,
2013-06-04 06:58:00,56.9,50.8,30.11,WSW,238,0.0,0.0,80,0.00,,,0.00,153,Wunderground v.1.15,2013-06-04 11:58:00,
2013-06-04 07:03:00,57.2,51.4,30.11,WSW,238,0.0,0.0,81,0.00,,,0.00,144,Wunderground v.1.15,2013-06-04 12:03:00,
2013-06-04 07:08:00,57.5,51.4,30.11,WSW,238,0.0,0.0,80,0.00,,,0.00,158,Wunderground v.1.15,2013-06-04 12:08:00,
2013-06-04 07:13:00,58.0,51.9,30.12,WSW,238,0.0,0.0,80,0.00,,,0.00,185,Wunderground v.1.15,2013-06-04 12:13:00,
2013-06-04 07:18:00,58.4,51.9,30.12,WSW,238,0.0,0.0,79,0.00,,,0.00,218,Wunderground v.1.15,2013-06-04 12:18:00,
2013-06-04 07:23:00,59.0,52.1,30.12,WSW,238,0.0,0.0,78,0.00,,,0.00,373,Wunderground v.1.15,2013-06-04 12:23:00,
2013-06-04 07:28:00,59.4,51.8,30.12,WSW,238,0.0,2.0,76,0.00,,,0.00,327,Wunderground v.1.15,2013-06-04 12:28:00,
2013-06-04 07:33:00,59.7,52.1,30.11,WSW,238,0.0,0.0,76,0.00,,,0.00,216,Wunderground v.1.15,2013-06-04 12:33:00,
2013-06-04 07:38:00,59.9,52.7,30.11,WSW,238,0.0,0.0,77,0.00,,,0.00,220,Wunderground v.1.15,2013-06-04 12:38:00,
2013-06-04 07:43:00,60.2,51.9,30.12,WSW,238,0.0,0.0,74,0.00,,,0.00,250,Wunderground v.1.15,2013-06-04 12:43:00,
2013-06-04 07:48:00,60.5,52.5,30.12,WSW,238,0.0,1.0,75,0.00,,,0.00,322,Wunderground v.1.15,2013-06-04 12:48:00,
2013-06-04 07:53:00,60.8,52.8,30.13,WSW,238,0.0,1.0,75,0.00,,,0.00,297,Wunderground v.1.15,2013-06-04 12:53:00,
2013-06-04 07:58:00,61.1,53.1,30.13,WSW,238,0.0,1.0,75,0.00,,,0.00,448,Wunderground v.1.15,2013-06-04 12:58:00,
2013-06-04 08:03:00,61.3,52.9,30.13,WSW,238,0.0,1.0,74,0.00,,,0.00,229,Wunderground v.1.15,2013-06-04 13:03:00,
2013-06-04 08:08:00,61.4,53.0,30.14,WSW,238,0.0,1.0,74,0.00,,,0.00,441,Wunderground v.1.15,2013-06-04 13:08:00,
2013-06-04 08:13:00,61.9,53.1,30.14,WSW,238,0.0,0.0,73,0.00,,,0.00,334,Wunderground v.1.15,2013-06-04 13:13:00,
2013-06-04 08:18:00,62.1,52.6,30.14,WSW,238,0.0,1.0,71,0.00,,,0.00,255,Wunderground v.1.15,2013-06-04 13:18:00,
2013-06-04 08:23:00,61.9,53.1,30.14,WSW,238,0.0,3.0,73,0.00,,,0.00,536,Wunderground v.1.15,2013-06-04 13:23:00,
2013-06-04 08:28:00,61.9,53.1,30.14,WSW,238,0.0,3.0,73,0.00,,,0.00,645,Wunderground v.1.15,2013-06-04 13:28:00,
2013-06-04 08:33:00,62.2,53.4,30.14,WSW,238,0.0,0.0,73,0.00,,,0.00,262,Wunderground v.1.15,2013-06-04 13:33:00,
2013-06-04 08:38:00,62.4,52.5,30.15,WSW,238,0.0,1.0,70,0.00,,,0.00,172,Wunderground v.1.15,2013-06-04 13:38:00,
2013-06-04 08:43:00,62.7,52.8,30.14,WSW,238,0.0,1.0,70,0.00,,,0.00,626,Wunderground v.1.15,2013-06-04 13:43:00,
2013-06-04 08:48:00,63.2,52.5,30.14,WSW,238,0.0,1.0,68,0.00,,,0.00,661,Wunderground v.1.15,2013-06-04 13:48:00,
2013-06-04 08:53:00,63.7,52.5,30.13,WSW,238,2.0,3.0,67,0.00,,,0.00,626,Wunderground v.1.15,2013-06-04 13:53:00,
2013-06-04 08:58:00,64.0,52.8,30.13,WSW,238,1.0,3.0,67,0.00,,,0.00,629,Wunderground v.1.15,2013-06-04 13:58:00,
2013-06-04 09:03:00,64.0,53.2,30.13,South,184,4.0,4.0,68,0.00,,,0.00,668,Wunderground v.1.15,2013-06-04 14:03:00,
2013-06-04 09:08:00,63.9,52.7,30.13,SE,144,3.0,5.0,67,0.00,,,0.00,701,Wunderground v.1.15,2013-06-04 14:08:00,
2013-06-04 09:13:00,63.8,53.4,30.14,SSE,165,0.0,4.0,69,0.00,,,0.00,724,Wunderground v.1.15,2013-06-04 14:13:00,
2013-06-04 09:18:00,64.1,51.7,30.14,South,171,4.0,4.0,64,0.00,,,0.00,628,Wunderground v.1.15,2013-06-04 14:18:00,
2013-06-04 09:23:00,64.1,51.7,30.14,South,180,5.0,6.0,64,0.00,,,0.00,738,Wunderground v.1.15,2013-06-04 14:23:00,
2013-06-04 09:28:00,64.1,51.7,30.14,South,186,0.0,6.0,64,0.00,,,0.00,837,Wunderground v.1.15,2013-06-04 14:28:00,
2013-06-04 09:33:00,64.5,52.5,30.14,West,259,2.0,4.0,65,0.00,,,0.00,359,Wunderground v.1.15,2013-06-04 14:33:00,
2013-06-04 09:38:00,64.3,52.7,30.14,South,170,1.0,5.0,66,0.00,,,0.00,355,Wunderground v.1.15,2013-06-04 14:38:00,
2013-06-04 09:43:00,64.0,52.8,30.15,WSW,240,1.0,5.0,67,0.00,,,0.00,401,Wunderground v.1.15,2013-06-04 14:43:00,
2013-06-04 09:48:00,64.0,53.2,30.15,SSE,159,1.0,5.0,68,0.00,,,0.00,429,Wunderground v.1.15,2013-06-04 14:48:00,
2013-06-04 09:53:00,64.0,53.2,30.15,SSE,167,3.0,5.0,68,0.00,,,0.00,378,Wunderground v.1.15,2013-06-04 14:53:00,
2013-06-04 09:58:00,63.6,52.4,30.15,SSE,162,4.0,6.0,67,0.00,,,0.00,418,Wunderground v.1.15,2013-06-04 14:58:00,
2013-06-04 10:03:00,63.4,52.2,30.15,South,169,2.0,5.0,67,0.00,,,0.00,438,Wunderground v.1.15,2013-06-04 15:03:00,
2013-06-04 10:08:00,63.2,52.5,30.15,SSE,167,3.0,5.0,68,0.00,,,0.00,496,Wunderground v.1.15,2013-06-04 15:08:00,
2013-06-04 10:13:00,63.2,52.5,30.15,SSE,162,3.0,6.0,68,0.00,,,0.00,436,Wunderground v.1.15,2013-06-04 15:13:00,
2013-06-04 10:18:00,63.4,52.2,30.15,SSE,165,3.0,6.0,67,0.00,,,0.00,432,Wunderground v.1.15,2013-06-04 15:18:00,
2013-06-04 10:23:00,63.5,51.9,30.15,SSE,153,6.0,6.0,66,0.00,,,0.00,431,Wunderground v.1.15,2013-06-04 15:23:00,
2013-06-04 10:28:00,63.7,53.7,30.15,SSE,160,2.0,6.0,70,0.00,,,0.00,459,Wunderground v.1.15,2013-06-04 15:28:00,
2013-06-04 10:33:00,64.3,52.7,30.15,SSE,163,2.0,6.0,66,0.00,,,0.00,584,Wunderground v.1.15,2013-06-04 15:33:00,
2013-06-04 10:38:00,64.4,52.4,30.15,SSE,161,5.0,6.0,65,0.00,,,0.00,508,Wunderground v.1.15,2013-06-04 15:38:00,
2013-06-04 10:43:00,64.6,52.6,30.15,SSW,209,0.0,4.0,65,0.00,,,0.00,464,Wunderground v.1.15,2013-06-04 15:43:00,
2013-06-04 10:48:00,64.6,52.1,30.15,SSE,165,4.0,6.0,64,0.00,,,0.00,492,Wunderground v.1.15,2013-06-04 15:48:00,
2013-06-04 10:53:00,64.5,51.2,30.15,SSE,162,3.0,6.0,62,0.00,,,0.00,489,Wunderground v.1.15,2013-06-04 15:53:00,
2013-06-04 10:58:00,64.6,51.3,30.14,SSE,167,2.0,6.0,62,0.00,,,0.00,501,Wunderground v.1.15,2013-06-04 15:58:00,
2013-06-04 11:03:00,64.7,51.8,30.14,SSE,167,0.0,7.0,63,0.00,,,0.00,464,Wunderground v.1.15,2013-06-04 16:03:00,
2013-06-04 11:09:00,64.9,51.6,30.14,SSE,167,4.0,7.0,62,0.00,,,0.00,482,Wunderground v.1.15,2013-06-04 16:09:00,
2013-06-04 11:14:00,65.0,52.1,30.14,SSW,192,0.0,5.0,63,0.00,,,0.00,506,Wunderground v.1.15,2013-06-04 16:14:00,
2013-06-04 11:19:00,65.3,51.9,30.14,South,170,3.0,5.0,62,0.00,,,0.00,469,Wunderground v.1.15,2013-06-04 16:19:00,
2013-06-04 11:24:00,65.5,51.2,30.14,SSE,168,2.0,6.0,60,0.00,,,0.00,471,Wunderground v.1.15,2013-06-04 16:24:00,
2013-06-04 11:29:00,65.8,52.0,30.14,SSE,161,6.0,6.0,61,0.00,,,0.00,517,Wunderground v.1.15,2013-06-04 16:29:00,
2013-06-04 11:34:00,66.0,51.3,30.14,SSE,165,5.0,8.0,59,0.00,,,0.00,858,Wunderground v.1.15,2013-06-04 16:34:00,
2013-06-04 11:39:00,66.1,50.9,30.14,South,172,3.0,8.0,58,0.00,,,0.00,536,Wunderground v.1.15,2013-06-04 16:39:00,
2013-06-04 11:44:00,66.2,52.8,30.14,SSE,162,4.0,5.0,62,0.00,,,0.00,541,Wunderground v.1.15,2013-06-04 16:44:00,
2013-06-04 11:49:00,66.2,51.4,30.14,SSE,164,3.0,9.0,59,0.00,,,0.00,464,Wunderground v.1.15,2013-06-04 16:49:00,
2013-06-04 11:54:00,65.9,50.7,30.14,SE,143,2.0,7.0,58,0.00,,,0.00,490,Wunderground v.1.15,2013-06-04 16:54:00,
2013-06-04 11:59:00,65.9,51.2,30.14,SE,138,0.0,7.0,59,0.00,,,0.00,464,Wunderground v.1.15,2013-06-04 16:59:00,
2013-06-04 12:04:00,66.2,51.4,30.14,South,175,4.0,7.0,59,0.00,,,0.00,448,Wunderground v.1.15,2013-06-04 17:04:00,
2013-06-04 12:09:00,66.1,49.5,30.14,SW,221,3.0,9.0,55,0.00,,,0.00,466,Wunderground v.1.15,2013-06-04 17:09:00,
2013-06-04 12:14:00,66.3,50.1,30.14,SE,139,5.0,5.0,56,0.00,,,0.00,455,Wunderground v.1.15,2013-06-04 17:14:00,
2013-06-04 12:19:00,66.2,50.5,30.14,South,170,4.0,8.0,57,0.00,,,0.00,418,Wunderground v.1.15,2013-06-04 17:19:00,
2013-06-04 12:24:00,66.1,49.9,30.14,SE,146,3.0,7.0,56,0.00,,,0.00,454,Wunderground v.1.15,2013-06-04 17:24:00,
2013-06-04 12:29:00,66.2,49.6,30.14,SE,138,3.0,8.0,55,0.00,,,0.00,464,Wunderground v.1.15,2013-06-04 17:29:00,
2013-06-04 12:34:00,66.2,50.0,30.14,SSE,155,6.0,7.0,56,0.00,,,0.00,501,Wunderground v.1.15,2013-06-04 17:34:00,
2013-06-04 12:39:00,66.3,49.6,30.13,SSE,159,3.0,7.0,55,0.00,,,0.00,499,Wunderground v.1.15,2013-06-04 17:39:00,
2013-06-04 12:44:00,66.5,49.8,30.13,SSE,159,5.0,8.0,55,0.00,,,0.00,499,Wunderground v.1.15,2013-06-04 17:44:00,
2013-06-04 12:49:00,66.7,50.0,30.13,SSE,147,4.0,9.0,55,0.00,,,0.00,575,Wunderground v.1.15,2013-06-04 17:49:00,
2013-06-04 12:54:00,67.0,49.8,30.13,South,173,0.0,11.0,54,0.00,,,0.00,696,Wunderground v.1.15,2013-06-04 17:54:00,
2013-06-04 12:59:00,67.2,50.0,30.13,SSE,166,6.0,11.0,54,0.00,,,0.00,548,Wunderground v.1.15,2013-06-04 17:59:00,
2013-06-04 13:04:00,67.2,51.0,30.13,SSE,163,4.0,5.0,56,0.00,,,0.00,424,Wunderground v.1.15,2013-06-04 18:04:00,
2013-06-04 13:09:00,67.1,50.4,30.12,SE,132,11.0,11.0,55,0.00,,,0.00,352,Wunderground v.1.15,2013-06-04 18:09:00,
2013-06-04 13:14:00,66.7,49.5,30.11,SE,128,6.0,12.0,54,0.00,,,0.00,316,Wunderground v.1.15,2013-06-04 18:14:00,
2013-06-04 13:19:00,66.7,49.0,30.11,SE,138,8.0,12.0,53,0.00,,,0.00,408,Wunderground v.1.15,2013-06-04 18:19:00,
2013-06-04 13:24:00,66.7,49.5,30.11,SE,146,6.0,10.0,54,0.00,,,0.00,533,Wunderground v.1.15,2013-06-04 18:24:00,
2013-06-04 13:29:00,67.1,49.4,30.11,SSE,152,9.0,12.0,53,0.00,,,0.00,635,Wunderground v.1.15,2013-06-04 18:29:00,
2013-06-04 13:34:00,67.4,49.2,30.10,ESE,121,8.0,13.0,52,0.00,,,0.00,786,Wunderground v.1.15,2013-06-04 18:34:00,
2013-06-04 13:39:00,67.7,48.9,30.11,SSE,161,8.0,13.0,51,0.00,,,0.00,1004,Wunderground v.1.15,2013-06-04 18:39:00,
2013-06-04 13:44:00,68.2,49.9,30.10,SSE,149,6.0,10.0,52,0.00,,,0.00,793,Wunderground v.1.15,2013-06-04 18:44:00,
2013-06-04 13:49:00,68.6,49.7,30.11,SSE,167,4.0,12.0,51,0.00,,,0.00,657,Wunderground v.1.15,2013-06-04 18:49:00,
2013-06-04 13:54:00,68.3,50.0,30.10,SSE,166,6.0,11.0,52,0.00,,,0.00,520,Wunderground v.1.15,2013-06-04 18:54:00,
2013-06-04 13:59:00,68.1,49.8,30.09,SE,142,8.0,18.0,52,0.00,,,0.00,457,Wunderground v.1.15,2013-06-04 18:59:00,
2013-06-04 14:04:00,68.0,50.2,30.09,South,172,8.0,10.0,53,0.00,,,0.00,343,Wunderground v.1.15,2013-06-04 19:04:00,
2013-06-04 14:09:00,67.7,49.4,30.10,ESE,105,7.0,12.0,52,0.00,,,0.00,299,Wunderground v.1.15,2013-06-04 19:09:00,
2013-06-04 14:14:00,67.5,48.7,30.09,South,178,5.0,11.0,51,0.00,,,0.00,332,Wunderground v.1.15,2013-06-04 19:14:00,
2013-06-04 14:19:00,67.7,49.4,30.09,SSE,163,6.0,12.0,52,0.00,,,0.00,323,Wunderground v.1.15,2013-06-04 19:19:00,
2013-06-04 14:24:00,67.6,49.9,30.09,SE,141,5.0,9.0,53,0.00,,,0.00,330,Wunderground v.1.15,2013-06-04 19:24:00,
2013-06-04 14:29:00,67.6,48.8,30.10,SSE,157,5.0,11.0,51,0.00,,,0.00,318,Wunderground v.1.15,2013-06-04 19:29:00,
2013-06-04 14:34:00,67.7,49.4,30.09,SSE,157,6.0,10.0,52,0.00,,,0.00,285,Wunderground v.1.15,2013-06-04 19:34:00,
2013-06-04 14:39:00,67.6,48.3,30.09,SSE,157,4.0,10.0,50,0.00,,,0.00,225,Wunderground v.1.15,2013-06-04 19:39:00,
2013-06-04 14:44:00,67.6,49.9,30.09,SE,132,6.0,9.0,53,0.00,,,0.00,243,Wunderground v.1.15,2013-06-04 19:44:00,
2013-06-04 14:49:00,67.6,48.3,30.10,ESE,121,7.0,11.0,50,0.00,,,0.00,272,Wunderground v.1.15,2013-06-04 19:49:00,
2013-06-04 14:54:00,67.6,48.3,30.11,West,263,2.0,11.0,50,0.00,,,0.00,251,Wunderground v.1.15,2013-06-04 19:54:00,
2013-06-04 14:59:00,67.6,49.3,30.11,SSE,166,8.0,11.0,52,0.00,,,0.00,234,Wunderground v.1.15,2013-06-04 19:59:00,
2013-06-04 15:04:00,67.6,48.8,30.09,SSE,154,5.0,9.0,51,0.00,,,0.00,225,Wunderground v.1.15,2013-06-04 20:04:00,
2013-06-04 15:09:00,67.6,47.8,30.11,SSE,165,7.0,10.0,49,0.00,,,0.00,186,Wunderground v.1.15,2013-06-04 20:09:00,
2013-06-04 15:14:00,67.5,47.7,30.11,SE,142,4.0,8.0,49,0.00,,,0.00,155,Wunderground v.1.15,2013-06-04 20:14:00,
2013-06-04 15:19:00,67.4,47.6,30.10,SSE,159,6.0,10.0,49,0.00,,,0.00,155,Wunderground v.1.15,2013-06-04 20:19:00,
2013-06-04 15:24:00,67.4,47.6,30.10,SSE,150,4.0,8.0,49,0.00,,,0.00,169,Wunderground v.1.15,2013-06-04 20:24:00,
2013-06-04 15:29:00,67.3,48.0,30.10,SE,137,4.0,8.0,50,0.00,,,0.00,183,Wunderground v.1.15,2013-06-04 20:29:00,
2013-06-04 15:34:00,67.4,48.1,30.10,SE,124,7.0,14.0,50,0.00,,,0.00,139,Wunderground v.1.15,2013-06-04 20:34:00,
2013-06-04 15:39:00,67.3,48.0,30.08,East,99,10.0,14.0,50,0.00,,,0.00,114,Wunderground v.1.15,2013-06-04 20:39:00,
2013-06-04 15:44:00,67.2,47.9,30.07,SE,138,5.0,13.0,50,0.00,,,0.00,120,Wunderground v.1.15,2013-06-04 20:44:00,
2013-06-04 15:49:00,67.2,46.8,30.07,SE,138,7.0,13.0,48,0.00,,,0.00,130,Wunderground v.1.15,2013-06-04 20:49:00,
2013-06-04 15:54:00,67.2,47.4,30.08,ESE,105,5.0,11.0,49,0.00,,,0.00,121,Wunderground v.1.15,2013-06-04 20:54:00,
2013-06-04 15:59:00,67.2,47.9,30.08,SE,141,3.0,11.0,50,0.00,,,0.00,123,Wunderground v.1.15,2013-06-04 20:59:00,
2013-06-04 16:04:00,67.2,46.8,30.08,ESE,109,8.0,11.0,48,0.00,,,0.00,113,Wunderground v.1.15,2013-06-04 21:04:00,
2013-06-04 16:09:00,67.2,47.4,30.08,SE,137,5.0,11.0,49,0.00,,,0.00,118,Wunderground v.1.15,2013-06-04 21:09:00,
2013-06-04 16:14:00,67.2,46.8,30.08,SE,143,5.0,11.0,48,0.00,,,0.00,120,Wunderground v.1.15,2013-06-04 21:14:00,
2013-06-04 16:19:00,67.2,46.8,30.08,SSE,158,11.0,13.0,48,0.00,,,0.00,104,Wunderground v.1.15,2013-06-04 21:19:00,
2013-06-04 16:24:00,67.2,46.3,30.07,ESE,115,10.0,16.0,47,0.00,,,0.00,116,Wunderground v.1.15,2013-06-04 21:24:00,
2013-06-04 16:29:00,67.2,46.8,30.06,SE,140,10.0,16.0,48,0.00,,,0.00,155,Wunderground v.1.15,2013-06-04 21:29:00,
2013-06-04 16:34:00,67.2,47.9,30.06,SE,146,6.0,10.0,50,0.00,,,0.00,174,Wunderground v.1.15,2013-06-04 21:34:00,
2013-06-04 16:39:00,67.2,47.4,30.06,SE,141,7.0,12.0,49,0.00,,,0.00,128,Wunderground v.1.15,2013-06-04 21:39:00,
2013-06-04 16:44:00,67.2,47.4,30.06,SE,144,6.0,12.0,49,0.00,,,0.00,114,Wunderground v.1.15,2013-06-04 21:44:00,
2013-06-04 16:49:00,67.2,47.4,30.06,SE,136,4.0,12.0,49,0.00,,,0.00,111,Wunderground v.1.15,2013-06-04 21:49:00,
2013-06-04 16:54:00,67.2,47.9,30.06,SSE,167,3.0,8.0,50,0.00,,,0.00,134,Wunderground v.1.15,2013-06-04 21:54:00,
2013-06-04 16:59:00,67.2,47.9,30.06,SSE,161,3.0,8.0,50,0.00,,,0.00,98,Wunderground v.1.15,2013-06-04 21:59:00,
2013-06-04 17:04:00,67.2,48.5,30.06,SSE,163,3.0,5.0,51,0.00,,,0.00,116,Wunderground v.1.15,2013-06-04 22:04:00,
2013-06-04 17:09:00,67.2,47.9,30.06,SE,139,7.0,13.0,50,0.00,,,0.00,97,Wunderground v.1.15,2013-06-04 22:09:00,
2013-06-04 17:14:00,67.1,47.3,30.06,ESE,112,4.0,12.0,49,0.00,,,0.00,86,Wunderground v.1.15,2013-06-04 22:14:00,
2013-06-04 17:19:00,67.0,47.2,30.06,SE,144,5.0,12.0,49,0.00,,,0.00,111,Wunderground v.1.15,2013-06-04 22:19:00,
2013-06-04 17:24:00,67.0,47.2,30.06,SE,142,6.0,9.0,49,0.00,,,0.00,88,Wunderground v.1.15,2013-06-04 22:24:00,
2013-06-04 17:29:00,66.9,47.1,30.07,SSE,161,2.0,9.0,49,0.00,,,0.00,63,Wunderground v.1.15,2013-06-04 22:29:00,
2013-06-04 17:34:00,66.8,48.1,30.08,SSE,161,0.0,4.0,51,0.00,,,0.00,93,Wunderground v.1.15,2013-06-04 22:34:00,
2013-06-04 17:39:00,66.7,48.0,30.08,SSE,161,0.0,4.0,51,0.00,,,0.00,76,Wunderground v.1.15,2013-06-04 22:39:00,
2013-06-04 17:44:00,66.7,48.0,30.07,South,191,1.0,6.0,51,0.00,,,0.00,69,Wunderground v.1.15,2013-06-04 22:44:00,
2013-06-04 17:49:00,66.5,47.8,30.08,ESE,111,8.0,8.0,51,0.00,,,0.00,42,Wunderground v.1.15,2013-06-04 22:49:00,
2013-06-04 17:54:00,66.4,48.7,30.08,ESE,109,0.0,8.0,53,0.00,,,0.00,32,Wunderground v.1.15,2013-06-04 22:54:00,
2013-06-04 17:59:00,66.2,48.0,30.08,ESE,121,4.0,8.0,52,0.00,,,0.00,33,Wunderground v.1.15,2013-06-04 22:59:00,
2013-06-04 18:04:00,66.0,47.9,30.08,East,95,3.0,7.0,52,0.00,,,0.00,33,Wunderground v.1.15,2013-06-04 23:04:00,
2013-06-04 18:09:00,65.9,48.8,30.08,East,95,2.0,7.0,54,0.00,,,0.00,28,Wunderground v.1.15,2013-06-04 23:09:00,
2013-06-04 18:14:00,65.7,48.1,30.09,ENE,65,2.0,6.0,53,0.00,,,0.00,26,Wunderground v.1.15,2013-06-04 23:14:00,
2013-06-04 18:19:00,65.5,47.9,30.08,ENE,73,7.0,9.0,53,0.00,,,0.00,39,Wunderground v.1.15,2013-06-04 23:19:00,
2013-06-04 18:24:00,65.5,47.4,30.08,East,82,6.0,9.0,52,0.00,,,0.00,35,Wunderground v.1.15,2013-06-04 23:24:00,
2013-06-04 18:29:00,65.5,47.9,30.08,SE,124,3.0,10.0,53,0.00,,,0.00,42,Wunderground v.1.15,2013-06-04 23:29:00,
2013-06-04 18:34:00,65.4,47.8,30.09,East,85,6.0,7.0,53,0.00,,,0.00,42,Wunderground v.1.15,2013-06-04 23:34:00,
2013-06-04 18:39:00,65.5,47.9,30.09,ESE,110,3.0,8.0,53,0.00,,,0.00,58,Wunderground v.1.15,2013-06-04 23:39:00,
2013-06-04 18:44:00,65.4,47.8,30.09,East,95,6.0,9.0,53,0.00,,,0.00,76,Wunderground v.1.15,2013-06-04 23:44:00,
2013-06-04 18:49:00,65.4,47.8,30.09,ESE,107,4.0,9.0,53,0.00,,,0.00,76,Wunderground v.1.15,2013-06-04 23:49:00,
2013-06-04 18:54:00,65.4,48.3,30.09,ESE,107,1.0,5.0,54,0.00,,,0.00,51,Wunderground v.1.15,2013-06-04 23:54:00,
2013-06-04 18:59:00,65.3,48.2,30.09,ESE,107,2.0,5.0,54,0.00,,,0.00,26,Wunderground v.1.15,2013-06-04 23:59:00,
2013-06-04 19:04:00,65.1,48.5,30.09,East,81,8.0,8.0,55,0.00,,,0.00,19,Wunderground v.1.15,2013-06-05 00:04:00,
2013-06-04 19:09:00,65.0,48.4,30.08,East,86,1.0,10.0,55,0.00,,,0.00,19,Wunderground v.1.15,2013-06-05 00:09:00,
2013-06-04 19:14:00,64.8,47.8,30.08,East,86,6.0,8.0,54,0.00,,,0.00,23,Wunderground v.1.15,2013-06-05 00:14:00,
2013-06-04 19:19:00,64.7,47.7,30.08,ENE,64,10.0,10.0,54,0.00,,,0.00,35,Wunderground v.1.15,2013-06-05 00:19:00,
2013-06-04 19:24:00,64.5,47.5,30.08,East,83,6.0,11.0,54,0.00,,,0.00,49,Wunderground v.1.15,2013-06-05 00:24:00,
2013-06-04 19:29:00,64.4,48.8,30.08,East,94,3.0,11.0,57,0.00,,,0.00,39,Wunderground v.1.15,2013-06-05 00:29:00,
2013-06-04 19:34:00,64.1,48.5,30.08,ENE,74,3.0,6.0,57,0.00,,,0.00,39,Wunderground v.1.15,2013-06-05 00:34:00,
2013-06-04 19:39:00,63.7,49.5,30.08,ESE,102,8.0,8.0,60,0.00,,,0.00,37,Wunderground v.1.15,2013-06-05 00:39:00,
2013-06-04 19:44:00,63.3,47.8,30.08,East,81,3.0,11.0,57,0.00,,,0.00,14,Wunderground v.1.15,2013-06-05 00:44:00,
2013-06-04 19:49:00,63.1,48.1,30.08,East,94,5.0,11.0,58,0.00,,,0.00,7,Wunderground v.1.15,2013-06-05 00:49:00,
2013-06-04 19:54:00,62.9,48.3,30.09,ESE,103,5.0,9.0,59,0.00,,,0.00,7,Wunderground v.1.15,2013-06-05 00:54:00,
2013-06-04 19:59:00,62.6,47.6,30.09,ESE,115,8.0,9.0,58,0.00,,,0.00,9,Wunderground v.1.15,2013-06-05 00:59:00,
2013-06-04 20:04:00,62.5,48.9,30.09,East,92,1.0,6.0,61,0.00,,,0.00,7,Wunderground v.1.15,2013-06-05 01:04:00,
2013-06-04 20:09:00,62.3,47.8,30.09,ESE,121,5.0,10.0,59,0.00,,,0.00,5,Wunderground v.1.15,2013-06-05 01:09:00,
2013-06-04 20:14:00,62.2,47.7,30.09,SE,137,2.0,5.0,59,0.00,,,0.00,0,Wunderground v.1.15,2013-06-05 01:14:00,
2013-06-04 20:19:00,62.1,47.6,30.10,SE,136,0.0,5.0,59,0.00,,,0.00,0,Wunderground v.1.15,2013-06-05 01:19:00,
2013-06-04 20:24:00,62.1,47.6,30.10,SE,136,3.0,3.0,59,0.00,,,0.00,0,Wunderground v.1.15,2013-06-05 01:24:00,
2013-06-04 20:29:00,61.9,47.9,30.09,NE,50,4.0,5.0,60,0.00,,,0.00,0,Wunderground v.1.15,2013-06-05 01:29:00,
2013-06-04 20:34:00,61.8,47.3,30.09,ENE,66,5.0,6.0,59,0.00,,,0.00,0,Wunderground v.1.15,2013-06-05 01:34:00,
2013-06-04 20:39:00,61.7,47.7,30.09,ENE,76,3.0,6.0,60,0.00,,,0.00,0,Wunderground v.1.15,2013-06-05 01:39:00,
2013-06-04 20:44:00,61.6,48.4,30.09,ENE,77,4.0,8.0,62,0.00,,,0.01,0,Wunderground v.1.15,2013-06-05 01:44:00,
2013-06-04 20:49:00,61.2,49.3,30.10,ENE,57,4.0,8.0,65,0.12,,,0.02,0,Wunderground v.1.15,2013-06-05 01:49:00,
2013-06-04 20:54:00,60.5,49.1,30.11,ENE,57,2.0,4.0,66,0.11,,,0.03,0,Wunderground v.1.15,2013-06-05 01:54:00,
2013-06-04 20:59:00,59.8,49.6,30.11,NE,51,0.0,6.0,69,0.11,,,0.03,0,Wunderground v.1.15,2013-06-05 01:59:00,
2013-06-04 21:04:00,59.1,49.7,30.11,NE,51,2.0,4.0,71,0.06,,,0.04,0,Wunderground v.1.15,2013-06-05 02:04:00,
2013-06-04 21:09:00,58.4,50.1,30.11,East,86,8.0,10.0,74,0.06,,,0.04,0,Wunderground v.1.15,2013-06-05 02:09:00,
2013-06-04 21:14:00,57.6,50.1,30.11,ESE,105,8.0,11.0,76,0.06,,,0.05,0,Wunderground v.1.15,2013-06-05 02:14:00,
2013-06-04 21:19:00,56.8,50.0,30.11,East,98,6.0,11.0,78,0.06,,,0.05,0,Wunderground v.1.15,2013-06-05 02:19:00,
2013-06-04 21:24:00,56.2,49.8,30.12,East,92,8.0,9.0,79,0.08,,,0.06,0,Wunderground v.1.15,2013-06-05 02:24:00,
2013-06-04 21:29:00,55.9,49.5,30.12,NE,50,6.0,11.0,79,0.08,,,0.06,0,Wunderground v.1.15,2013-06-05 02:29:00,
2013-06-04 21:34:00,55.4,49.3,30.12,NE,46,9.0,12.0,80,0.07,,,0.07,0,Wunderground v.1.15,2013-06-05 02:34:00,
2013-06-04 21:40:00,55.0,48.9,30.12,ESE,102,5.0,8.0,80,0.08,,,0.08,0,Wunderground v.1.15,2013-06-05 02:40:00,
2013-06-04 21:44:00,54.6,49.2,30.12,NE,55,4.0,9.0,82,0.08,,,0.08,0,Wunderground v.1.15,2013-06-05 02:44:00,
2013-06-04 21:50:00,54.3,49.2,30.12,ENE,71,4.0,5.0,83,0.05,,,0.08,0,Wunderground v.1.15,2013-06-05 02:50:00,
2013-06-04 21:55:00,54.1,49.4,30.12,East,92,8.0,10.0,84,0.04,,,0.09,0,Wunderground v.1.15,2013-06-05 02:55:00,
2013-06-04 22:00:00,54.0,49.3,30.12,ENE,78,8.0,8.0,84,0.04,,,0.09,0,Wunderground v.1.15,2013-06-05 03:00:00,
2013-06-04 22:05:00,53.8,49.1,30.12,ESE,103,10.0,12.0,84,0.04,,,0.09,0,Wunderground v.1.15,2013-06-05 03:05:00,
2013-06-04 22:10:00,53.6,48.9,30.13,East,96,3.0,7.0,84,0.04,,,0.09,0,Wunderground v.1.15,2013-06-05 03:10:00,
2013-06-04 22:15:00,53.6,48.9,30.13,East,95,1.0,8.0,84,0.00,,,0.09,0,Wunderground v.1.15,2013-06-05 03:15:00,
2013-06-04 22:20:00,53.5,48.8,30.13,East,82,3.0,5.0,84,0.00,,,0.09,0,Wunderground v.1.15,2013-06-05 03:20:00,
2013-06-04 22:25:00,53.4,48.7,30.13,ESE,103,4.0,9.0,84,0.00,,,0.09,0,Wunderground v.1.15,2013-06-05 03:25:00,
2013-06-04 22:30:00,53.4,48.7,30.13,East,86,3.0,5.0,84,0.00,,,0.09,0,Wunderground v.1.15,2013-06-05 03:30:00,
2013-06-04 22:35:00,53.3,48.9,30.13,East,86,2.0,5.0,85,0.00,,,0.09,0,Wunderground v.1.15,2013-06-05 03:35:00,
2013-06-04 22:40:00,53.1,48.4,30.14,NNE,23,2.0,3.0,84,0.00,,,0.09,0,Wunderground v.1.15,2013-06-05 03:40:00,
2013-06-04 22:45:00,53.0,48.6,30.14,ENE,67,2.0,5.0,85,0.00,,,0.10,0,Wunderground v.1.15,2013-06-05 03:45:00,
2013-06-04 22:50:00,52.9,48.5,30.14,ENE,67,1.0,2.0,85,0.00,,,0.10,0,Wunderground v.1.15,2013-06-05 03:50:00,
2013-06-04 22:55:00,52.8,48.7,30.14,NE,44,1.0,4.0,86,0.00,,,0.10,0,Wunderground v.1.15,2013-06-05 03:55:00,
2013-06-04 23:00:00,52.7,48.6,30.13,NE,44,3.0,3.0,86,0.00,,,0.10,0,Wunderground v.1.15,2013-06-05 04:00:00,
2013-06-04 23:01:00,52.7,48.6,30.13,NE,44,2.0,3.0,86,0.00,,,0.10,0,Wunderground v.1.15,2013-06-05 04:01:00,
2013-06-04 23:02:00,52.6,48.5,30.13,NE,44,3.0,3.0,86,0.00,,,0.10,0,Wunderground v.1.15,2013-06-05 04:02:00,
2013-06-04 23:07:00,52.5,48.4,30.13,NE,44,3.0,4.0,86,0.00,,,0.10,0,Wunderground v.1.15,2013-06-05 04:07:00,
2013-06-04 23:12:00,52.5,48.4,30.13,NE,44,0.0,3.0,86,0.00,,,0.11,0,Wunderground v.1.15,2013-06-05 04:12:00,
2013-06-04 23:17:00,52.3,48.2,30.13,NE,44,2.0,3.0,86,0.00,,,0.11,0,Wunderground v.1.15,2013-06-05 04:17:00,
2013-06-04 23:22:00,52.2,49.1,30.12,ENE,68,4.0,8.0,89,0.00,,,0.11,0,Wunderground v.1.15,2013-06-05 04:22:00,
2013-06-04 23:27:00,52.3,48.2,30.13,ENE,71,1.0,8.0,86,0.00,,,0.11,0,Wunderground v.1.15,2013-06-05 04:27:00,
2013-06-04 23:32:00,52.3,48.2,30.12,ENE,71,3.0,3.0,86,0.00,,,0.11,0,Wunderground v.1.15,2013-06-05 04:32:00,
2013-06-04 23:37:00,52.3,48.2,30.13,ENE,74,0.0,4.0,86,0.18,,,0.13,0,Wunderground v.1.15,2013-06-05 04:37:00,
2013-06-04 23:42:00,52.2,48.4,30.13,ENE,74,0.0,1.0,87,0.12,,,0.14,0,Wunderground v.1.15,2013-06-05 04:42:00,
2013-06-04 23:47:00,52.1,48.3,30.13,ENE,74,1.0,3.0,87,0.10,,,0.14,0,Wunderground v.1.15,2013-06-05 04:47:00,
2013-06-04 23:52:00,52.0,48.3,30.12,ENE,74,2.0,3.0,87,0.09,,,0.15,0,Wunderground v.1.15,2013-06-05 04:52:00,
2013-06-04 23:57:00,51.9,48.5,30.12,ENE,74,0.0,3.0,88,0.06,,,0.15,0,Wunderground v.1.15,2013-06-05 04:57:00,